Terminal Aerodrome Forecast
Issued by NWS Amarillo, TX

Home | Current Version | Previous Version | Text Only | Print | Product List | Glossary On
Versions: 1 2 3 4 5 6 7 8 9 10 11 12 13 14 15
036
FTUS44 KAMA 070522
TAFDHT
TAF
KDHT 070522Z 0706/0806 18011KT P6SM SCT300
     FM071500 33015KT P6SM SCT300
     FM071700 36022G32KT P6SM SCT300
     FM080000 02014KT P6SM SCT025=

USA.gov is the U.S. government's official web portal to all federal, state and local government web resources and services.